Time;durP1;ratioP1;P1;durP2;ratioP2;P2;SDS_P1;SDS_P2;PMS_P1;PMS_P2;Temp;Humidity;BMP_temperature;BMP_pressure;BME280_temperature;BME280_humidity;BME280_pressure;Samples;Min_cycle;Max_cycle;Signal;HPM_P1;HPM_P2
2022/04/27 00:00:34;;;;;;;17.92;10.35;;;;;;;7.91;100.00;99057.72;5051496;28;20111;-66
2022/04/27 00:03:04;;;;;;;16.17;9.38;;;;;;;7.84;100.00;99059.47;5051367;28;20036;-66
2022/04/27 00:05:30;;;;;;;20.38;11.65;;;;;;;7.69;100.00;99033.31;5052022;28;20013;-66
2022/04/27 00:07:57;;;;;;;20.88;11.80;;;;;;;7.82;100.00;99058.81;5050586;28;20025;-67
2022/04/27 00:10:22;;;;;;;18.80;10.82;;;;;;;7.78;100.00;99057.50;5050170;28;20029;-66
2022/04/27 00:12:48;;;;;;;20.15;12.23;;;;;;;7.75;100.00;99050.59;5045550;28;20032;-67
2022/04/27 00:15:14;;;;;;;21.58;12.65;;;;;;;7.62;100.00;99053.91;5045853;28;20037;-66
2022/04/27 00:17:40;;;;;;;21.08;12.32;;;;;;;7.55;100.00;99047.56;5050490;28;20028;-66
2022/04/27 00:20:07;;;;;;;22.65;11.57;;;;;;;7.65;100.00;99058.94;5052092;28;20035;-67
2022/04/27 00:22:33;;;;;;;19.33;11.48;;;;;;;7.67;100.00;99067.66;5050843;28;20036;-67
2022/04/27 00:25:00;;;;;;;21.75;12.35;;;;;;;7.54;100.00;99051.25;5048544;28;20025;-66
2022/04/27 00:27:27;;;;;;;20.08;11.35;;;;;;;7.69;100.00;99065.63;5046359;28;20039;-66
2022/04/27 00:29:52;;;;;;;20.10;12.05;;;;;;;7.60;100.00;99053.25;5050224;28;20025;-66
2022/04/27 00:32:17;;;;;;;19.40;11.73;;;;;;;7.68;100.00;99055.88;5052693;28;20028;-66
2022/04/27 00:34:43;;;;;;;18.70;10.80;;;;;;;7.76;100.00;99067.63;5050259;28;20410;-66
2022/04/27 00:37:08;;;;;;;21.52;13.13;;;;;;;7.81;100.00;99059.84;5051914;28;20032;-66
2022/04/27 00:39:34;;;;;;;21.33;13.20;;;;;;;7.85;100.00;99061.16;5048671;28;20044;-67
2022/04/27 00:42:21;;;;;;;24.85;13.75;;;;;;;7.86;100.00;99066.38;5050345;28;20044;-66
2022/04/27 00:44:47;;;;;;;26.27;15.27;;;;;;;7.83;100.00;99082.91;5045113;28;20075;-66
2022/04/27 00:47:14;;;;;;;27.05;15.25;;;;;;;7.92;100.00;99072.06;5051707;28;20060;-66
2022/04/27 00:49:48;;;;;;;24.48;14.52;;;;;;;7.81;100.00;99079.53;5052393;28;20040;-66
2022/04/27 00:52:15;;;;;;;29.63;15.68;;;;;;;7.84;100.00;99067.56;5050023;28;20505;-66
2022/04/27 00:54:41;;;;;;;26.80;15.43;;;;;;;7.80;100.00;99071.63;5048481;28;20054;-66
2022/04/27 00:57:07;;;;;;;26.83;15.35;;;;;;;7.81;100.00;99068.75;5045778;28;20033;-67
2022/04/27 00:59:32;;;;;;;26.95;14.45;;;;;;;7.96;100.00;99070.66;5048640;28;20024;-66
2022/04/27 01:01:58;;;;;;;25.60;15.30;;;;;;;7.97;100.00;99075.06;5050617;28;20035;-66
2022/04/27 01:04:23;;;;;;;28.13;15.25;;;;;;;7.95;100.00;99077.91;5050016;28;20033;-67
2022/04/27 01:06:49;;;;;;;26.20;14.93;;;;;;;8.01;100.00;99082.56;5043359;28;20056;-67
2022/04/27 01:09:14;;;;;;;25.50;15.13;;;;;;;7.96;100.00;99093.06;5048553;28;20508;-67
2022/04/27 01:11:40;;;;;;;30.05;16.88;;;;;;;7.97;100.00;99088.53;5047985;28;20029;-66
2022/04/27 01:14:06;;;;;;;26.02;15.10;;;;;;;8.03;100.00;99093.19;5050046;28;20052;-67
2022/04/27 01:16:31;;;;;;;27.63;15.23;;;;;;;7.97;100.00;99086.66;5052054;28;20029;-66
2022/04/27 01:18:56;;;;;;;29.42;15.68;;;;;;;7.92;100.00;99093.59;5043974;28;20044;-66
2022/04/27 01:21:23;;;;;;;22.20;14.23;;;;;;;7.87;100.00;99061.81;5048832;28;20182;-66
2022/04/27 01:23:49;;;;;;;25.23;15.48;;;;;;;7.82;100.00;99067.72;5050732;28;20029;-66
2022/04/27 01:26:14;;;;;;;28.80;15.18;;;;;;;7.93;100.00;99084.50;5049218;28;20032;-66
2022/04/27 01:28:39;;;;;;;24.55;14.45;;;;;;;8.00;100.00;99090.84;5048097;28;20483;-66
2022/04/27 01:31:10;;;;;;;25.52;14.75;;;;;;;7.97;100.00;99094.75;5046916;28;20151;-66
2022/04/27 01:33:35;;;;;;;23.73;13.93;;;;;;;7.94;100.00;99084.34;5043358;28;20029;-66
2022/04/27 01:36:06;;;;;;;28.52;14.23;;;;;;;8.01;100.00;99095.22;5047690;28;20540;-66
2022/04/27 01:38:42;;;;;;;24.42;14.10;;;;;;;8.01;100.00;99087.97;5049589;28;20033;-66
2022/04/27 01:41:08;;;;;;;26.65;14.23;;;;;;;7.93;100.00;99079.94;5047506;28;20055;-66
2022/04/27 01:43:34;;;;;;;26.63;13.82;;;;;;;8.06;100.00;99085.56;5049581;28;20043;-66
2022/04/27 01:46:00;;;;;;;25.17;14.13;;;;;;;7.84;100.00;99067.56;5051759;28;20025;-67
2022/04/27 01:48:27;;;;;;;27.52;15.63;;;;;;;8.00;100.00;99093.56;5080147;22;21320;-67
2022/04/27 01:50:53;;;;;;;25.10;15.20;;;;;;;8.01;100.00;99096.03;5088111;28;20036;-67
2022/04/27 01:56:03;;;;;;;29.25;15.43;;;;;;;8.03;100.00;99095.88;5091004;28;20112;-67
2022/04/27 01:58:29;;;;;;;25.50;14.25;;;;;;;8.09;100.00;99095.16;5074690;28;20104;-67
2022/04/27 02:00:55;;;;;;;21.85;13.48;;;;;;;8.07;100.00;99089.97;5066978;28;20028;-68
2022/04/27 02:03:21;;;;;;;24.05;13.93;;;;;;;8.02;100.00;99097.75;5055198;28;20029;-67
2022/04/27 02:05:47;;;;;;;22.25;13.07;;;;;;;8.01;100.00;99096.03;5071382;28;20028;-67
2022/04/27 02:08:12;;;;;;;20.70;12.93;;;;;;;8.06;100.00;99100.91;5066314;28;20043;-67
2022/04/27 02:10:38;;;;;;;19.08;11.30;;;;;;;7.91;100.00;99090.06;5061107;28;20085;-67
2022/04/27 02:13:05;;;;;;;18.95;11.07;;;;;;;7.90;100.00;99083.84;5077591;28;20028;-67
2022/04/27 02:15:31;;;;;;;16.55;10.48;;;;;;;7.93;100.00;99096.09;5066826;28;20032;-68
2022/04/27 02:17:56;;;;;;;14.52;8.52;;;;;;;7.94;100.00;99088.84;5066740;28;20128;-68
2022/04/27 02:20:23;;;;;;;14.23;8.45;;;;;;;7.86;100.00;99077.16;5063657;28;20358;-67
2022/04/27 02:22:48;;;;;;;12.00;7.70;;;;;;;7.89;100.00;99092.09;5063877;28;20438;-67
2022/04/27 02:25:14;;;;;;;12.82;8.05;;;;;;;7.85;100.00;99101.56;5070230;28;20071;-67
2022/04/27 02:27:39;;;;;;;11.27;7.10;;;;;;;7.85;100.00;99098.84;5055235;28;20029;-67
2022/04/27 02:30:05;;;;;;;10.48;6.63;;;;;;;7.77;100.00;99094.38;5063754;28;20064;-67
2022/04/27 02:32:31;;;;;;;11.75;7.00;;;;;;;7.79;100.00;99113.06;5067811;28;20023;-67
2022/04/27 02:34:56;;;;;;;11.18;6.40;;;;;;;7.80;100.00;99112.03;5066453;28;20033;-66
2022/04/27 02:37:21;;;;;;;10.90;7.22;;;;;;;7.78;100.00;99116.75;5059932;28;20123;-67
2022/04/27 02:39:47;;;;;;;9.77;6.68;;;;;;;7.78;100.00;99114.06;5062880;28;20035;-66
2022/04/27 02:42:12;;;;;;;8.93;6.20;;;;;;;7.80;100.00;99114.72;5066922;28;20040;-67
2022/04/27 02:44:37;;;;;;;8.32;5.88;;;;;;;7.79;100.00;99113.06;5067537;28;20112;-66
2022/04/27 02:47:04;;;;;;;9.65;6.15;;;;;;;7.80;100.00;99126.31;5065618;28;20029;-66
2022/04/27 02:52:13;;;;;;;8.98;6.28;;;;;;;7.81;100.00;99129.88;5071424;28;20035;-66
2022/04/27 02:54:38;;;;;;;8.57;5.53;;;;;;;7.83;100.00;99119.75;5077415;28;20036;-66
2022/04/27 02:57:04;;;;;;;9.65;5.88;;;;;;;7.81;100.00;99127.19;5073852;28;20028;-66
2022/04/27 02:59:29;;;;;;;7.65;5.60;;;;;;;7.74;100.00;99110.88;5061948;28;20021;-66
2022/04/27 03:01:55;;;;;;;8.07;5.40;;;;;;;7.74;100.00;99116.28;5062252;28;20025;-67
2022/04/27 03:04:20;;;;;;;8.88;5.70;;;;;;;7.82;100.00;99129.69;5076294;28;20024;-66
2022/04/27 03:06:45;;;;;;;9.93;6.30;;;;;;;7.80;100.00;99125.50;5074970;28;20032;-66
2022/04/27 03:09:10;;;;;;;8.02;5.90;;;;;;;7.78;100.00;99120.31;5069153;28;20036;-66
2022/04/27 03:11:36;;;;;;;11.20;6.18;;;;;;;7.79;100.00;99129.22;5063991;28;20039;-66
2022/04/27 03:14:01;;;;;;;9.85;6.45;;;;;;;7.74;100.00;99128.91;5065178;28;20026;-67
2022/04/27 03:16:26;;;;;;;8.90;6.15;;;;;;;7.65;100.00;99115.50;5060193;28;20424;-66
2022/04/27 03:18:52;;;;;;;9.95;6.70;;;;;;;7.79;100.00;99131.91;5062578;28;20120;-66
2022/04/27 03:21:17;;;;;;;12.00;7.35;;;;;;;7.80;100.00;99136.25;5057685;28;20029;-67
2022/04/27 03:23:42;;;;;;;14.57;7.60;;;;;;;7.72;100.00;99130.94;5067584;28;20024;-66
2022/04/27 03:26:08;;;;;;;13.15;7.30;;;;;;;7.78;100.00;99123.00;5059236;28;20028;-66
2022/04/27 03:28:33;;;;;;;11.00;7.25;;;;;;;7.71;100.00;99132.78;5064090;28;20043;-66
2022/04/27 03:30:58;;;;;;;12.13;7.47;;;;;;;7.71;100.00;99124.72;5069394;28;20501;-67
2022/04/27 03:33:24;;;;;;;11.23;7.00;;;;;;;7.73;100.00;99121.81;5055229;28;20039;-72
2022/04/27 03:35:49;;;;;;;12.38;7.50;;;;;;;7.80;100.00;99130.88;5063054;28;20456;-73
2022/04/27 03:38:15;;;;;;;11.93;7.43;;;;;;;7.76;100.00;99132.25;5060111;28;20099;-73
2022/04/27 03:40:46;;;;;;;10.15;6.72;;;;;;;7.83;100.00;99133.22;5059946;28;20477;-72
2022/04/27 03:43:12;;;;;;;9.77;6.57;;;;;;;7.83;100.00;99111.66;5057999;28;20033;-74
2022/04/27 03:45:37;;;;;;;11.13;6.70;;;;;;;7.85;100.00;99121.25;5063152;28;20529;-73
2022/04/27 03:48:03;;;;;;;10.68;7.10;;;;;;;7.82;100.00;99104.59;5061387;28;20039;-74
2022/04/27 03:50:28;;;;;;;12.02;7.93;;;;;;;7.80;100.00;99109.31;5061774;28;20941;-72
2022/04/27 03:52:53;;;;;;;12.80;8.20;;;;;;;7.77;100.00;99107.00;5060219;28;20024;-69
2022/04/27 03:55:19;;;;;;;13.50;8.30;;;;;;;7.77;100.00;99129.38;5060960;28;20032;-70
2022/04/27 03:57:44;;;;;;;16.02;10.00;;;;;;;7.79;100.00;99137.28;5061627;28;20032;-74
2022/04/27 04:00:12;;;;;;;15.02;9.25;;;;;;;7.70;100.00;99136.47;5062721;28;20028;-73
2022/04/27 04:02:37;;;;;;;14.25;8.80;;;;;;;7.75;100.00;99152.94;5063240;28;20071;-71
2022/04/27 04:05:07;;;;;;;17.08;9.60;;;;;;;7.78;100.00;99146.38;5061901;28;20032;-73
2022/04/27 04:07:33;;;;;;;14.35;9.07;;;;;;;7.67;100.00;99129.59;5064858;28;20082;-68
2022/04/27 04:09:59;;;;;;;12.93;8.77;;;;;;;7.74;100.00;99145.06;5058167;28;20181;-73
2022/04/27 04:12:24;;;;;;;17.90;8.90;;;;;;;7.75;100.00;99146.72;5061145;28;20079;-72
2022/04/27 04:14:50;;;;;;;15.10;9.43;;;;;;;7.80;100.00;99147.88;5059187;28;20029;-74
2022/04/27 04:17:16;;;;;;;16.10;8.90;;;;;;;7.86;100.00;99157.13;5058087;28;20025;-72
2022/04/27 04:19:41;;;;;;;15.95;8.65;;;;;;;7.97;100.00;99167.50;5066827;28;20017;-72
2022/04/27 04:22:08;;;;;;;13.73;8.35;;;;;;;7.89;100.00;99140.59;5071216;28;20035;-70
2022/04/27 04:24:33;;;;;;;13.25;8.55;;;;;;;8.08;100.00;99172.47;5059674;28;20094;-72
2022/04/27 04:29:42;;;;;;;10.65;6.90;;;;;;;7.97;100.00;99182.81;5066497;28;20032;-69
2022/04/27 04:32:08;;;;;;;10.45;6.82;;;;;;;7.89;100.00;99189.94;5068405;28;20394;-70
2022/04/27 04:34:33;;;;;;;11.25;7.15;;;;;;;7.88;100.00;99190.09;5061631;28;20043;-68
2022/04/27 04:36:58;;;;;;;10.25;6.93;;;;;;;7.87;100.00;99200.03;5062566;28;20529;-69
2022/04/27 04:39:24;;;;;;;12.90;7.38;;;;;;;7.84;100.00;99186.91;5062052;28;20108;-69
2022/04/27 04:41:49;;;;;;;11.00;6.60;;;;;;;7.79;100.00;99193.84;5067965;28;20093;-65
2022/04/27 04:44:14;;;;;;;11.27;6.97;;;;;;;7.92;100.00;99207.59;5054198;28;20102;-71
2022/04/27 04:46:40;;;;;;;11.30;7.13;;;;;;;7.69;100.00;99173.34;5063662;28;20060;-70
2022/04/27 04:49:05;;;;;;;11.95;6.78;;;;;;;7.85;100.00;99206.63;5070159;28;20020;-72
2022/04/27 04:51:31;;;;;;;12.88;7.38;;;;;;;7.96;100.00;99206.22;5061207;28;20025;-72
2022/04/27 04:53:56;;;;;;;11.13;7.15;;;;;;;7.95;100.00;99212.63;5069046;28;20029;-71
2022/04/27 04:56:21;;;;;;;12.00;6.65;;;;;;;7.97;100.00;99220.53;5065290;28;20032;-72
2022/04/27 04:58:47;;;;;;;11.63;7.30;;;;;;;8.11;100.00;99223.31;5062908;28;20039;-72
2022/04/27 05:01:12;;;;;;;10.93;7.40;;;;;;;8.15;100.00;99222.94;5075288;28;20657;-69
2022/04/27 05:03:38;;;;;;;11.70;7.40;;;;;;;8.21;100.00;99228.47;5093164;28;20017;-69
2022/04/27 05:06:04;;;;;;;10.15;7.35;;;;;;;8.20;100.00;99220.56;5082956;28;20020;-73
2022/04/27 05:08:29;;;;;;;11.35;6.70;;;;;;;8.37;100.00;99229.41;5084933;28;20055;-72
2022/04/27 05:10:54;;;;;;;11.05;7.18;;;;;;;8.45;100.00;99232.06;5082690;28;20043;-73
2022/04/27 05:13:19;;;;;;;12.60;7.38;;;;;;;8.53;100.00;99232.00;5067750;28;20070;-69
2022/04/27 05:15:45;;;;;;;10.32;6.95;;;;;;;8.69;100.00;99241.84;5060168;28;20134;-72
2022/04/27 05:18:10;;;;;;;12.25;7.22;;;;;;;8.79;100.00;99239.72;5067683;28;20028;-73
2022/04/27 05:20:38;;;;;;;10.48;7.15;;;;;;;9.00;100.00;99242.56;5075018;28;20020;-68
2022/04/27 05:23:03;;;;;;;10.85;6.85;;;;;;;9.04;100.00;99242.22;5062436;28;22047;-69
2022/04/27 05:25:29;;;;;;;10.40;6.80;;;;;;;9.13;100.00;99258.16;5069158;28;20031;-68
2022/04/27 05:27:54;;;;;;;10.45;6.93;;;;;;;9.12;100.00;99255.66;5077483;28;20017;-69
2022/04/27 05:33:03;;;;;;;9.93;6.32;;;;;;;9.15;100.00;99255.28;5077112;28;20137;-70
2022/04/27 05:35:28;;;;;;;12.25;6.80;;;;;;;9.14;100.00;99259.84;5076277;28;20509;-70
2022/04/27 05:37:54;;;;;;;10.68;6.10;;;;;;;9.26;100.00;99262.09;5072903;28;20389;-70
2022/04/27 05:40:19;;;;;;;10.30;6.95;;;;;;;9.30;100.00;99268.78;5075590;28;20016;-70
2022/04/27 05:42:47;;;;;;;9.98;6.68;;;;;;;9.31;100.00;99255.13;5072577;28;20039;-73
2022/04/27 05:45:13;;;;;;;8.95;6.32;;;;;;;9.37;100.00;99267.88;5076805;28;20023;-74
2022/04/27 05:47:40;;;;;;;10.98;7.38;;;;;;;9.40;100.00;99263.97;5086032;28;20017;-70
2022/04/27 05:50:05;;;;;;;9.68;6.70;;;;;;;9.41;100.00;99282.69;5075265;28;20062;-70
2022/04/27 05:52:45;;;;;;;11.68;6.70;;;;;;;9.42;100.00;99272.72;5068152;28;20025;-71
2022/04/27 05:55:10;;;;;;;8.55;6.32;;;;;;;9.49;100.00;99276.38;5070126;28;20020;-70
2022/04/27 05:57:35;;;;;;;9.52;6.85;;;;;;;9.49;100.00;99264.75;5070474;28;20029;-72
2022/04/27 06:00:01;;;;;;;11.45;7.35;;;;;;;9.43;100.00;99267.16;5076960;28;20048;-71
2022/04/27 06:02:28;;;;;;;16.83;7.72;;;;;;;9.56;100.00;99284.56;5065118;28;20044;-67
2022/04/27 06:04:54;;;;;;;11.15;7.05;;;;;;;9.60;100.00;99292.13;5054540;28;20025;-72
2022/04/27 06:07:19;;;;;;;12.75;7.00;;;;;;;9.57;100.00;99275.44;5059297;28;20141;-71
2022/04/27 06:09:44;;;;;;;9.43;6.85;;;;;;;9.49;100.00;99291.75;5060124;28;20497;-73
2022/04/27 06:12:10;;;;;;;10.80;7.47;;;;;;;9.46;100.00;99301.06;5058305;28;20025;-73
2022/04/27 06:14:36;;;;;;;12.13;7.20;;;;;;;9.49;100.00;99297.16;5056043;28;20123;-71
2022/04/27 06:17:01;;;;;;;8.77;6.13;;;;;;;9.48;100.00;99299.00;5058046;28;20033;-69
2022/04/27 06:19:27;;;;;;;10.32;6.55;;;;;;;9.48;100.00;99290.88;5063775;28;20037;-70
2022/04/27 06:21:52;;;;;;;9.05;6.05;;;;;;;9.70;100.00;99302.66;5063564;28;20086;-70
2022/04/27 06:24:17;;;;;;;9.70;6.50;;;;;;;9.83;100.00;99285.81;5065511;28;20060;-71
2022/04/27 06:26:43;;;;;;;11.88;6.63;;;;;;;10.06;100.00;99304.59;5068808;28;20025;-73
2022/04/27 06:29:09;;;;;;;11.88;6.65;;;;;;;10.22;100.00;99290.88;5069440;28;20090;-71
2022/04/27 06:31:35;;;;;;;9.50;6.65;;;;;;;10.81;98.55;99302.59;5056780;28;20411;-68
2022/04/27 06:34:00;;;;;;;8.95;6.28;;;;;;;11.25;95.49;99302.41;5061404;28;20032;-70
2022/04/27 06:36:25;;;;;;;8.25;6.03;;;;;;;11.71;91.92;99304.63;5071236;28;20104;-71
2022/04/27 06:38:51;;;;;;;8.95;5.70;;;;;;;12.27;85.22;99292.84;5062985;28;20474;-70
2022/04/27 06:41:16;;;;;;;10.82;5.57;;;;;;;14.24;73.86;99302.34;5065532;28;20938;-70
2022/04/27 06:43:41;;;;;;;6.82;4.78;;;;;;;15.89;66.92;99305.03;5059089;28;20032;-70
2022/04/27 06:46:07;;;;;;;6.78;4.47;;;;;;;15.70;66.54;99304.19;5057272;28;20467;-71
2022/04/27 06:48:33;;;;;;;7.05;4.90;;;;;;;14.78;67.86;99292.91;5052235;28;20032;-70
2022/04/27 06:50:58;;;;;;;5.90;4.32;;;;;;;15.62;64.31;99300.88;5056686;28;20040;-71
2022/04/27 06:53:23;;;;;;;5.15;3.78;;;;;;;17.00;59.79;99299.50;5060679;28;20020;-70
2022/04/27 06:55:50;;;;;;;5.57;3.75;;;;;;;20.35;50.10;99307.53;5064998;28;20020;-70
2022/04/27 06:58:15;;;;;;;5.15;3.55;;;;;;;22.90;42.22;99307.97;5057653;28;20025;-70
2022/04/27 07:00:41;;;;;;;4.78;2.55;;;;;;;24.46;39.00;99309.31;5064413;28;20583;-71
2022/04/27 07:03:06;;;;;;;4.88;3.47;;;;;;;23.82;39.61;99322.72;5063675;28;20025;-73
2022/04/27 07:05:31;;;;;;;5.88;4.07;;;;;;;20.43;44.62;99320.00;5064641;28;20040;-72
2022/04/27 07:07:58;;;;;;;5.45;4.15;;;;;;;17.81;51.14;99341.75;5074091;28;20514;-70
2022/04/27 07:10:24;;;;;;;4.35;3.35;;;;;;;15.85;55.84;99352.09;5071843;28;20158;-68
2022/04/27 07:12:49;;;;;;;4.13;3.55;;;;;;;14.80;60.92;99358.91;5075601;28;20062;-67
2022/04/27 07:15:15;;;;;;;6.80;3.83;;;;;;;13.73;65.60;99352.91;5073331;28;20450;-68
2022/04/27 07:17:40;;;;;;;5.13;3.58;;;;;;;12.97;66.52;99341.50;5070724;28;20032;-70
2022/04/27 07:20:06;;;;;;;6.22;3.38;;;;;;;13.63;65.63;99359.81;5069878;28;20099;-70
2022/04/27 07:22:31;;;;;;;4.18;3.08;;;;;;;13.91;64.59;99356.84;5062504;28;20112;-71
2022/04/27 07:24:57;;;;;;;3.42;2.65;;;;;;;14.19;62.60;99359.31;5067486;28;20028;-71
2022/04/27 07:27:22;;;;;;;3.65;2.95;;;;;;;14.47;61.97;99357.13;5068828;28;20067;-71
2022/04/27 07:29:47;;;;;;;4.45;3.22;;;;;;;15.56;58.63;99351.69;5068803;28;20434;-72
2022/04/27 07:32:13;;;;;;;4.72;3.38;;;;;;;18.42;50.61;99333.25;5067496;28;20021;-70
2022/04/27 07:34:38;;;;;;;4.00;2.67;;;;;;;19.68;44.96;99325.81;5061779;28;20071;-70
2022/04/27 07:37:05;;;;;;;3.90;3.15;;;;;;;20.62;45.12;99326.88;5066069;28;20016;-70
2022/04/27 07:39:31;;;;;;;4.75;2.60;;;;;;;21.52;43.62;99357.56;5065782;28;20452;-72
2022/04/27 07:41:56;;;;;;;3.25;2.30;;;;;;;21.95;41.66;99344.69;5067387;28;20133;-71
2022/04/27 07:44:22;;;;;;;2.58;2.38;;;;;;;20.73;43.61;99358.91;5063141;28;20049;-68
2022/04/27 07:46:47;;;;;;;2.63;2.33;;;;;;;18.59;49.24;99367.88;5067605;28;20132;-69
2022/04/27 07:49:19;;;;;;;2.80;2.05;;;;;;;17.44;51.40;99338.34;5077842;22;20123;-65
2022/04/27 07:51:49;;;;;;;4.38;3.00;;;;;;;16.66;53.47;99381.06;5061063;28;20028;-66
2022/04/27 07:54:15;;;;;;;4.28;2.50;;;;;;;16.32;55.85;99385.22;5062124;28;20056;-66
2022/04/27 07:56:40;;;;;;;4.50;2.75;;;;;;;15.66;55.83;99386.66;5061026;28;20094;-66
2022/04/27 07:59:06;;;;;;;3.00;2.35;;;;;;;15.18;60.41;99385.31;5059339;28;20028;-69
2022/04/27 08:01:32;;;;;;;3.95;2.50;;;;;;;14.43;60.47;99382.25;5040124;28;20385;-68
2022/04/27 08:03:57;;;;;;;2.63;2.00;;;;;;;14.43;62.25;99399.44;5044167;28;20777;-68
2022/04/27 08:06:22;;;;;;;3.05;2.28;;;;;;;14.39;63.38;99392.75;5041455;28;20119;-73
2022/04/27 08:08:48;;;;;;;2.92;2.00;;;;;;;14.63;63.12;99393.13;5045790;28;20037;-69
2022/04/27 08:11:15;;;;;;;3.75;2.60;;;;;;;14.56;62.47;99400.47;5037684;28;20052;-67
2022/04/27 08:13:41;;;;;;;3.25;2.33;;;;;;;14.56;62.94;99392.31;5035160;28;20029;-72
2022/04/27 08:16:07;;;;;;;3.38;2.35;;;;;;;14.55;64.75;99405.09;5048941;28;20032;-72
2022/04/27 08:18:34;;;;;;;3.20;2.67;;;;;;;14.24;63.29;99373.13;5035347;28;20403;-72
2022/04/27 08:21:15;;;;;;;3.72;2.13;;;;;;;14.61;61.86;99384.34;5054074;28;20120;-67
2022/04/27 08:23:42;;;;;;;3.63;2.40;;;;;;;15.00;61.57;99404.28;5042491;28;20478;-66
2022/04/27 08:26:10;;;;;;;2.63;2.05;;;;;;;15.52;60.39;99403.13;5044210;28;20032;-66
2022/04/27 08:28:39;;;;;;;3.20;2.10;;;;;;;15.85;58.00;99401.22;5042476;28;20029;-66
2022/04/27 08:31:06;;;;;;;2.63;2.10;;;;;;;16.05;58.10;99403.78;5048967;28;20025;-67
2022/04/27 08:33:32;;;;;;;6.20;2.20;;;;;;;16.91;53.19;99394.66;5045541;28;20033;-65
2022/04/27 08:35:57;;;;;;;3.40;1.90;;;;;;;17.74;51.08;99404.81;5045132;28;20029;-65
2022/04/27 08:38:23;;;;;;;2.72;2.08;;;;;;;17.93;50.98;99402.84;5043384;28;20033;-65
2022/04/27 08:40:50;;;;;;;3.55;2.30;;;;;;;17.46;52.27;99389.03;5042243;28;20124;-67
2022/04/27 08:43:15;;;;;;;3.45;2.30;;;;;;;18.17;50.57;99403.66;5047971;28;20025;-65
2022/04/27 08:45:43;;;;;;;1.77;1.58;;;;;;;17.27;51.12;99410.16;5041199;28;20517;-73
2022/04/27 08:48:09;;;;;;;3.72;1.83;;;;;;;17.95;49.13;99410.81;5037055;28;20033;-65
2022/04/27 08:50:34;;;;;;;2.55;2.08;;;;;;;17.14;49.03;99402.13;5040242;28;20049;-67
2022/04/27 08:53:00;;;;;;;2.95;2.15;;;;;;;16.78;50.56;99417.50;5048111;28;20060;-68
2022/04/27 08:55:29;;;;;;;3.10;2.28;;;;;;;17.04;49.81;99418.25;5033089;28;20020;-68
2022/04/27 08:58:05;;;;;;;;;;;;;;;17.81;49.06;99420.31;5043900;28;20021;-67
2022/04/27 09:00:30;;;;;;;3.45;1.95;;;;;;;17.46;50.36;99413.66;5044063;28;19948;-65
2022/04/27 09:02:58;;;;;;;3.42;2.17;;;;;;;17.13;51.77;99405.09;5039348;28;20109;-64
2022/04/27 09:05:24;;;;;;;2.47;1.80;;;;;;;18.01;49.01;99418.06;5047041;28;20037;-67
2022/04/27 09:07:52;;;;;;;2.92;1.75;;;;;;;18.28;48.71;99421.16;5046862;28;20097;-67
2022/04/27 09:10:27;;;;;;;3.33;2.22;;;;;;;18.12;50.08;99417.25;5046685;28;20020;-67
2022/04/27 09:12:57;;;;;;;2.83;2.00;;;;;;;19.18;46.35;99413.53;5047655;28;20441;-65
2022/04/27 09:15:24;;;;;;;2.95;1.98;;;;;;;18.79;46.77;99381.22;5046166;28;20099;-64
2022/04/27 09:20:55;;;;;;;3.42;2.00;;;;;;;20.58;42.73;99416.44;5027517;28;20091;-65
2022/04/27 09:23:38;;;;;;;2.50;1.75;;;;;;;18.54;45.79;99416.28;5046520;28;20029;-65
2022/04/27 09:26:19;;;;;;;2.03;1.80;;;;;;;19.62;44.80;99422.00;5044411;28;20025;-65
2022/04/27 09:28:49;;;;;;;2.67;1.80;;;;;;;20.62;43.75;99406.63;5037320;28;20048;-65
2022/04/27 09:31:33;;;;;;;2.70;1.85;;;;;;;20.98;42.73;99412.56;5047450;28;20025;-65
2022/04/27 09:33:59;;;;;;;2.28;1.92;;;;;;;21.57;41.54;99414.63;5042252;28;20191;-65
2022/04/27 09:36:25;;;;;;;1.50;1.40;;;;;;;21.34;43.67;99415.72;5042921;28;20021;-65
2022/04/27 09:38:52;;;;;;;2.30;1.80;;;;;;;20.87;43.74;99384.09;5042804;28;20064;-70
2022/04/27 09:41:41;;;;;;;3.00;1.70;;;;;;;20.57;42.10;99423.88;5037806;28;20048;-69
2022/04/27 09:44:06;;;;;;;;;;;;;;;19.87;43.70;99411.50;5042850;28;20116;-64
2022/04/27 09:46:38;;;;;;;4.00;1.83;;;;;;;18.86;45.31;99422.19;5048278;28;19945;-65
2022/04/27 09:49:11;;;;;;;2.53;1.80;;;;;;;17.49;51.10;99426.84;5049499;28;20279;-64
2022/04/27 09:51:37;;;;;;;2.67;1.60;;;;;;;17.02;52.89;99421.19;5044959;28;20082;-64
2022/04/27 09:54:04;;;;;;;2.25;2.05;;;;;;;16.77;54.53;99429.53;5049395;28;20107;-64
2022/04/27 09:56:38;;;;;;;2.17;1.70;;;;;;;16.42;53.75;99399.19;5040267;28;20087;-64
2022/04/27 09:59:09;;;;;;;2.55;2.15;;;;;;;16.26;55.64;99425.19;5036857;28;20102;-63
2022/04/27 10:01:36;;;;;;;2.35;1.80;;;;;;;16.46;55.60;99429.63;5043390;28;20025;-64
2022/04/27 10:04:05;;;;;;;3.05;2.10;;;;;;;16.62;56.06;99415.38;5038696;28;20025;-63
2022/04/27 10:06:31;;;;;;;3.33;1.92;;;;;;;17.36;53.99;99421.59;5038643;28;20435;-64
2022/04/27 10:09:01;;;;;;;2.88;2.03;;;;;;;17.87;51.83;99424.84;5047941;28;20101;-64
2022/04/27 10:11:27;;;;;;;2.47;1.70;;;;;;;18.11;52.30;99414.75;5041586;28;20013;-64
2022/04/27 10:13:56;;;;;;;3.42;2.20;;;;;;;17.95;52.91;99432.72;5043209;28;20033;-64
2022/04/27 10:16:23;;;;;;;3.00;1.85;;;;;;;18.52;51.16;99422.00;5046515;28;20025;-64
2022/04/27 10:18:49;;;;;;;2.65;2.03;;;;;;;18.20;51.52;99407.84;5045798;28;20029;-64
2022/04/27 10:22:18;;;;;;;2.50;2.10;;;;;;;18.15;50.92;99397.59;5047481;28;20029;-63
2022/04/27 10:24:42;;;;;;;3.63;2.10;;;;;;;17.77;49.01;99427.31;5029933;28;20040;-64
2022/04/27 10:27:23;;;;;;;3.53;2.50;;;;;;;17.47;52.02;99422.69;5044462;28;20029;-62
2022/04/27 10:29:51;;;;;;;3.00;2.50;;;;;;;17.29;53.25;99431.78;5044103;28;20119;-64
2022/04/27 10:32:36;;;;;;;3.05;2.50;;;;;;;16.92;53.89;99428.28;5046102;28;20146;-63
2022/04/27 10:35:14;;;;;;;3.67;2.53;;;;;;;17.22;55.57;99428.31;5043310;28;20032;-62
2022/04/27 10:38:02;;;;;;;2.58;1.98;;;;;;;18.28;54.08;99429.38;5042551;28;20223;-64
2022/04/27 10:40:40;;;;;;;2.72;2.00;;;;;;;19.35;50.60;99411.66;5036927;28;20032;-63
2022/04/27 10:43:11;;;;;;;4.30;2.25;;;;;;;20.94;47.20;99409.50;5043820;28;20043;-65
2022/04/27 10:45:40;;;;;;;3.15;2.25;;;;;;;22.76;44.22;99413.28;5045234;28;20611;-63
2022/04/27 10:48:07;;;;;;;2.35;1.80;;;;;;;25.49;37.08;99399.09;5036841;28;20498;-63
2022/04/27 10:50:35;;;;;;;2.50;1.98;;;;;;;26.75;35.00;99391.88;5039560;28;20021;-62
2022/04/27 10:53:15;;;;;;;3.85;1.85;;;;;;;25.73;35.64;99403.91;5040271;28;20037;-62
2022/04/27 10:55:43;;;;;;;2.60;2.10;;;;;;;23.55;37.78;99405.00;5044813;28;20036;-62
2022/04/27 10:58:16;;;;;;;2.78;2.47;;;;;;;21.13;41.34;99406.41;5051619;28;20041;-62
2022/04/27 11:01:02;;;;;;;3.03;2.50;;;;;;;19.58;44.89;99413.44;5042756;28;20749;-65
2022/04/27 11:03:35;;;;;;;3.40;2.72;;;;;;;18.31;48.90;99417.13;5043525;28;20502;-67
2022/04/27 11:06:04;;;;;;;3.80;3.13;;;;;;;18.14;50.24;99414.28;5042271;28;20029;-65
2022/04/27 11:08:35;;;;;;;2.85;2.33;;;;;;;18.02;50.25;99422.47;5049916;28;20036;-65
2022/04/27 11:11:06;;;;;;;6.85;3.03;;;;;;;17.16;52.51;99430.09;5046620;28;20026;-61
2022/04/27 11:13:36;;;;;;;4.60;3.30;;;;;;;17.06;50.10;99419.69;5041589;28;20025;-67
2022/04/27 11:16:12;;;;;;;4.80;3.05;;;;;;;17.37;49.73;99422.41;5035821;28;20029;-64
2022/04/27 11:18:55;;;;;;;3.38;2.72;;;;;;;17.41;50.20;99399.84;5031362;28;20111;-64
2022/04/27 11:21:22;;;;;;;4.15;3.03;;;;;;;18.14;51.31;99409.63;5040658;28;20025;-64
2022/04/27 11:23:48;;;;;;;4.20;2.95;;;;;;;20.69;45.14;99401.75;5044849;28;20036;-64
2022/04/27 11:26:14;;;;;;;3.65;2.67;;;;;;;23.43;40.34;99404.44;5043547;28;20490;-63
2022/04/27 11:28:44;;;;;;;3.60;2.70;;;;;;;25.56;34.64;99402.34;5040706;28;20475;-64
2022/04/27 11:31:11;;;;;;;3.20;2.63;;;;;;;24.64;35.63;99397.25;5039945;28;20029;-64
2022/04/27 11:33:40;;;;;;;4.10;2.50;;;;;;;22.91;38.21;99409.78;5037867;28;20030;-65
2022/04/27 11:36:05;;;;;;;;;;;;;;;21.10;40.80;99415.19;5041057;28;20037;-65
2022/04/27 11:38:36;;;;;;;4.95;2.88;;;;;;;20.10;42.65;99391.28;5043702;28;19940;-64
2022/04/27 11:41:04;;;;;;;3.65;3.00;;;;;;;17.84;46.48;99400.66;5038448;28;20390;-64
2022/04/27 11:43:33;;;;;;;5.85;2.92;;;;;;;16.84;51.90;99421.22;5047438;28;20040;-64